Hillsborough, New Jersey
Current Conditions -  °F | °C
As of 8:53 AM on Thursday 29 Jan 2015 (Local Time) from KSMQ Reporting Station
Clear Clear  
Wind Chill: 14°   Ceiling: Unl
Heat Index: 14°   Visibility: 10mi
Dew Point:   Wind: 0mph
Humidity: 67%   Direction: NA
Pressure: 30.32"   Gusts: NA
Location:  40.5°N, 74.69°W
Report Text: KSMQ 291353Z AUTO 00000KT 10SM CLR M10/M15 A3032 RMK AO2 SLP270 T11001150 TSNO
Loading
Personal Weather Stations






























Interactive Weather Map New forecast layout! Learn more

10-Day Weather Forecast

Advertisements
Track Severe Weather on mobile